Huvudsida
METAR-TAF:

METAR-TAF

Flygplatser :

Maseru / Moshoeshoe

Maseru, Lesotho

latitud: 29-27S, longitud: 027-33E, höjd: 1631 m

Aktuellt väderrapport

Denna rapport gjordes för 9 timmar och 5 minuter sedan, klockan 09:00 UTC
Stilla vind
Temperatur 19°C
Fuktighet 32%
Tryck 1028 hPa
Sikt 10 km eller mer
Inga moln under 1 500 m eller inga cumulonimbus

METAR: FXMM 230900Z 00000KT CAVOK 19/02 Q1028 NOSIG

Tid: 20:05 (18:05 UTC)

Väderprognos

Denna rapport gjordes för 14 timmar och 5 minuter sedan, klockan 04:00 UTC
Prognos gäller från 23 kl. 06 UTC till 24 kl. 06 UTC
Vind 4 kt från ost
Sikt 10 km eller mer
Inga moln under 1 500 m eller inga cumulonimbus
Blir
från 23 kl. 09 UTC till 23 kl. 11 UTC
Vind 10 kt från väst
Blir
från 23 kl. 15 UTC till 23 kl. 17 UTC
Vind 6 kt från sydväst

TAF: FXMM 230400Z 2306/2406 09004KT CAVOK TX24/2313Z TN06/2403Z BECMG 2309/2311 28010KT BECMG 2315/2317 23006KT

Aktuella väderrapporter och prognoser från 4000 flygplatser (METAR- och TAF-rapporter).

De tillgängliga stationerna syns som gula och röda prickar på kartan.

För musen över prickarna för att se namnen på stationerna.

Klicka sedan för att få väderrapporter och prognoser.

För att ändra kartan: Klicka på de gröna knapparna med ett svart kors på för att zooma in; den gröna knappen med ett streck på för att zooma ut; eller på de gröna pilarna för angränsande kartor.


METAR-TAF: